createdAt,value
2018-12-13T00:01:56.746Z,99227.41
2018-12-13T00:04:29.780Z,99234.02
2018-12-13T00:07:01.532Z,99223.98
2018-12-13T00:09:32.936Z,99222.23
2018-12-13T00:12:06.098Z,99223.19
2018-12-13T00:14:37.471Z,99211.44
2018-12-13T00:17:08.600Z,99212.73
2018-12-13T00:19:39.703Z,99208.67
2018-12-13T00:22:13.422Z,99209.23
2018-12-13T00:24:44.806Z,99220.41
2018-12-13T00:27:15.952Z,99213.61
2018-12-13T00:29:49.403Z,99211.06
2018-12-13T00:32:20.666Z,99215.24
2018-12-13T00:34:53.914Z,99215.43
2018-12-13T00:37:27.054Z,99208.82
2018-12-13T00:39:58.472Z,99207.48
2018-12-13T00:42:31.931Z,99206.20
2018-12-13T00:45:05.052Z,99207.95
2018-12-13T00:47:36.945Z,99197.19
2018-12-13T00:57:44.269Z,99197.72
2018-12-13T01:02:46.804Z,99201.22
2018-12-13T01:05:17.944Z,99196.23
2018-12-13T01:07:51.229Z,99194.48
2018-12-13T01:10:22.652Z,99195.67
2018-12-13T01:12:53.845Z,99192.13
2018-12-13T01:15:33.231Z,99203.19
2018-12-13T01:18:04.735Z,99204.06
2018-12-13T01:26:22.768Z,99196.27
2018-12-13T01:28:54.388Z,99196.69
2018-12-13T01:31:27.412Z,99189.31
2018-12-13T01:34:00.520Z,99187.65
2018-12-13T01:36:31.804Z,99184.57
2018-12-13T01:39:07.105Z,99186.73
2018-12-13T01:41:40.317Z,99188.70
2018-12-13T01:44:13.253Z,99190.16
2018-12-13T01:46:49.266Z,99184.33
2018-12-13T01:49:22.224Z,99183.42
2018-12-13T01:51:53.629Z,99185.70
2018-12-13T01:54:27.011Z,99188.33
2018-12-13T01:57:00.174Z,99185.70
2018-12-13T01:59:31.824Z,99179.20
2018-12-13T02:02:05.160Z,99186.54
2018-12-13T02:04:36.763Z,99176.13
2018-12-13T02:07:10.389Z,99183.04
2018-12-13T02:09:41.804Z,99180.84
2018-12-13T02:12:12.785Z,99177.59
2018-12-13T02:14:43.721Z,99178.06
2018-12-13T02:17:17.069Z,99178.44
2018-12-13T02:19:50.088Z,99171.86
2018-12-13T02:22:23.020Z,99174.82
2018-12-13T02:24:54.477Z,99170.57
2018-12-13T02:27:28.069Z,99175.28
2018-12-13T02:30:01.054Z,99163.62
2018-12-13T02:32:32.546Z,99170.07
2018-12-13T02:35:05.952Z,99173.98
2018-12-13T02:37:37.660Z,99176.37
2018-12-13T02:40:10.806Z,99179.83
2018-12-13T02:42:41.289Z,99173.79
2018-12-13T02:45:14.877Z,99163.58
2018-12-13T02:47:46.292Z,99160.00
2018-12-13T02:50:19.900Z,99153.97
2018-12-13T02:52:51.260Z,99148.72
2018-12-13T02:55:24.642Z,99147.39
2018-12-13T02:57:56.051Z,99149.36
2018-12-13T03:00:28.946Z,99148.32
2018-12-13T03:03:02.125Z,99148.20
2018-12-13T03:05:40.033Z,99135.25
2018-12-13T03:08:14.045Z,99147.58
2018-12-13T03:10:47.820Z,99140.67
2018-12-13T03:13:19.246Z,99141.17
2018-12-13T03:15:52.660Z,99145.50
2018-12-13T03:18:23.834Z,99141.75
2018-12-13T03:20:55.069Z,99136.88
2018-12-13T03:23:28.259Z,99133.30
2018-12-13T03:25:59.689Z,99127.27
2018-12-13T03:28:31.188Z,99128.85
2018-12-13T03:31:04.352Z,99127.06
2018-12-13T03:33:40.192Z,99129.27
2018-12-13T03:36:13.427Z,99124.52
2018-12-13T03:38:44.841Z,99127.56
2018-12-13T03:41:18.189Z,99128.02
2018-12-13T03:43:49.590Z,99128.40
2018-12-13T03:46:22.793Z,99126.69
2018-12-13T03:48:54.330Z,99118.99
2018-12-13T03:51:27.685Z,99124.64
2018-12-13T03:54:00.885Z,99118.91
2018-12-13T03:56:32.045Z,99120.41
2018-12-13T03:59:05.419Z,99122.08
2018-12-13T04:01:37.025Z,99117.08
2018-12-13T04:04:08.217Z,99117.16
2018-12-13T04:06:41.739Z,99112.17
2018-12-13T04:09:12.932Z,99105.64
2018-12-13T04:11:44.103Z,99106.09
2018-12-13T04:14:17.377Z,99106.92
2018-12-13T04:16:49.700Z,99107.84
2018-12-13T04:19:21.494Z,99106.43
2018-12-13T04:21:53.631Z,99108.76
2018-12-13T04:24:24.866Z,99109.13
2018-12-13T04:26:58.054Z,99094.83
2018-12-13T04:29:29.596Z,99104.93
2018-12-13T04:32:00.540Z,99099.23
2018-12-13T04:34:34.065Z,99110.46
2018-12-13T04:37:05.515Z,99109.96
2018-12-13T04:39:38.844Z,99107.02
2018-12-13T04:42:10.165Z,99107.47
2018-12-13T04:44:43.354Z,99102.72
2018-12-13T04:47:14.804Z,99101.85
2018-12-13T04:49:49.259Z,99100.48
2018-12-13T04:52:20.413Z,99096.48
2018-12-13T04:54:54.072Z,99100.10
2018-12-13T04:57:25.600Z,99099.98
2018-12-13T04:59:57.220Z,99102.72
2018-12-13T05:02:32.780Z,99100.56
2018-12-13T05:05:05.707Z,99103.64
2018-12-13T05:07:41.777Z,99098.48
2018-12-13T05:10:17.117Z,99091.74
2018-12-13T05:12:48.285Z,99097.36
2018-12-13T05:15:21.677Z,99094.28
2018-12-13T05:17:54.650Z,99093.83
2018-12-13T05:20:27.855Z,99097.07
2018-12-13T05:22:59.514Z,99099.70
2018-12-13T05:25:32.848Z,99094.58
2018-12-13T05:28:05.980Z,99094.08
2018-12-13T05:30:37.363Z,99091.95
2018-12-13T05:33:10.677Z,99092.00
2018-12-13T05:35:42.073Z,99085.51
2018-12-13T05:38:13.086Z,99095.28
2018-12-13T05:40:44.265Z,99093.08
2018-12-13T05:43:19.694Z,99096.52
2018-12-13T05:45:53.081Z,99095.36
2018-12-13T05:48:24.356Z,99096.66
2018-12-13T05:50:57.786Z,99101.36
2018-12-13T05:53:35.376Z,99098.86
2018-12-13T05:56:06.706Z,99093.11
2018-12-13T05:58:40.248Z,99097.98
2018-12-13T06:01:13.492Z,99093.62
2018-12-13T06:03:44.571Z,99098.06
2018-12-13T06:06:16.118Z,99097.58
2018-12-13T06:08:49.510Z,99101.44
2018-12-13T06:11:21.138Z,99099.19
2018-12-13T06:13:54.381Z,99098.27
2018-12-13T06:16:25.732Z,99099.61
2018-12-13T06:18:56.732Z,99100.52
2018-12-13T06:21:27.478Z,99102.89
2018-12-13T06:23:58.760Z,99109.84
2018-12-13T06:26:31.959Z,99103.39
2018-12-13T06:29:05.135Z,99103.39
2018-12-13T06:31:36.657Z,99102.89
2018-12-13T06:34:09.967Z,99095.53
2018-12-13T06:36:43.173Z,99097.28
2018-12-13T06:39:14.538Z,99097.28
2018-12-13T06:41:47.844Z,99096.11
2018-12-13T06:44:19.049Z,99095.58
2018-12-13T06:46:50.268Z,99097.33
2018-12-13T06:49:23.531Z,99106.42
2018-12-13T06:51:56.723Z,99104.97
2018-12-13T06:54:28.256Z,99105.34
2018-12-13T06:57:00.567Z,99109.21
2018-12-13T06:59:32.021Z,99107.18
2018-12-13T07:02:03.357Z,99105.30
2018-12-13T07:04:36.526Z,99107.59
2018-12-13T07:07:11.458Z,99105.59
2018-12-13T07:09:44.490Z,99106.30
2018-12-13T07:12:17.668Z,99113.58
2018-12-13T07:14:51.856Z,99111.33
2018-12-13T07:19:56.956Z,99107.88
2018-12-13T07:22:28.367Z,99112.58
2018-12-13T07:24:59.699Z,99111.17
2018-12-13T07:27:33.205Z,99108.59
2018-12-13T07:30:06.475Z,99109.42
2018-12-13T07:32:37.892Z,99110.70
2018-12-13T07:35:11.119Z,99105.59
2018-12-13T07:37:45.054Z,99110.25
2018-12-13T07:40:18.060Z,99101.89
2018-12-13T07:42:49.617Z,99105.30
2018-12-13T07:45:23.224Z,99103.80
2018-12-13T07:47:54.751Z,99099.84
2018-12-13T07:50:27.915Z,99097.31
2018-12-13T07:52:59.588Z,99099.94
2018-12-13T07:55:32.642Z,99097.40
2018-12-13T07:58:08.693Z,99100.97
2018-12-13T08:00:40.095Z,99091.62
2018-12-13T08:03:13.816Z,99090.42
2018-12-13T08:05:45.196Z,99093.08
2018-12-13T08:08:20.804Z,99105.64
2018-12-13T08:10:49.472Z,99095.36
2018-12-13T08:13:22.664Z,99094.91
2018-12-13T08:15:58.635Z,99098.86
2018-12-13T08:18:31.812Z,99095.48
2018-12-13T08:21:04.957Z,99094.70
2018-12-13T08:31:12.496Z,99094.36
2018-12-13T08:33:43.906Z,99101.64
2018-12-13T08:36:17.300Z,99096.66
2018-12-13T08:38:49.026Z,99096.40
2018-12-13T08:41:22.407Z,99092.53
2018-12-13T08:43:53.981Z,99094.36
2018-12-13T08:46:27.049Z,99090.41
2018-12-13T08:48:58.520Z,99089.03
2018-12-13T08:51:29.719Z,99090.44
2018-12-13T08:54:03.084Z,99083.91
2018-12-13T08:56:34.497Z,99081.03
2018-12-13T08:59:18.484Z,99080.70
2018-12-13T09:01:49.947Z,99077.63
2018-12-13T09:04:23.577Z,99079.17
2018-12-13T09:06:57.393Z,99074.62
2018-12-13T09:09:28.958Z,99079.83
2018-12-13T09:12:02.794Z,99074.86
2018-12-13T09:14:36.387Z,99077.48
2018-12-13T09:17:07.704Z,99068.83
2018-12-13T09:19:41.387Z,99076.73
2018-12-13T09:22:17.447Z,99075.89
2018-12-13T09:24:48.245Z,99083.64
2018-12-13T09:27:21.512Z,99080.22
2018-12-13T09:29:53.138Z,99077.19
2018-12-13T09:32:26.506Z,99076.20
2018-12-13T09:34:58.274Z,99076.98
2018-12-13T09:37:29.953Z,99074.03
2018-12-13T09:40:03.100Z,99069.44
2018-12-13T09:42:34.892Z,99068.49
2018-12-13T09:45:08.075Z,99073.66
2018-12-13T09:47:39.964Z,99068.03
2018-12-13T09:50:15.006Z,99066.11
2018-12-13T09:52:50.852Z,99061.81
2018-12-13T09:55:25.983Z,99061.81
2018-12-13T09:57:59.834Z,99058.41
2018-12-13T10:00:31.518Z,99059.92
2018-12-13T10:03:05.087Z,99046.30
2018-12-13T10:05:39.686Z,99049.14
2018-12-13T10:08:11.443Z,99044.89
2018-12-13T10:10:44.357Z,99050.02
2018-12-13T10:13:17.346Z,99047.17
2018-12-13T10:15:56.774Z,99045.12
2018-12-13T10:18:30.349Z,99035.66
2018-12-13T10:21:01.833Z,99041.13
2018-12-13T10:23:35.182Z,99040.41
2018-12-13T10:26:06.709Z,99034.30
2018-12-13T10:28:39.935Z,99035.36
2018-12-13T10:31:13.226Z,99030.61
2018-12-13T10:36:28.112Z,99028.05
2018-12-13T10:39:01.747Z,99032.45
2018-12-13T10:41:32.512Z,99032.67
2018-12-13T10:44:03.910Z,99029.45
2018-12-13T10:46:39.532Z,99022.92
2018-12-13T10:49:12.658Z,99021.55
2018-12-13T10:51:44.182Z,99014.58
2018-12-13T10:54:16.104Z,99012.41
2018-12-13T10:56:47.750Z,99013.25
2018-12-13T10:59:20.878Z,99005.33
2018-12-13T11:02:02.180Z,99004.36
2018-12-13T11:04:35.962Z,99003.62
2018-12-13T11:07:09.838Z,98993.03
2018-12-13T11:09:41.511Z,98988.02
2018-12-13T11:12:14.728Z,98985.27
2018-12-13T11:14:47.162Z,98977.06
2018-12-13T11:17:21.293Z,98977.33
2018-12-13T11:19:53.205Z,98974.55
2018-12-13T11:22:28.242Z,98976.94
2018-12-13T11:25:02.788Z,98974.03
2018-12-13T11:27:45.280Z,98969.89
2018-12-13T11:30:24.080Z,98969.89
2018-12-13T11:33:00.219Z,98965.79
2018-12-13T11:35:34.918Z,98957.33
2018-12-13T11:38:15.397Z,98958.94
2018-12-13T11:40:50.745Z,98957.61
2018-12-13T11:43:30.125Z,98947.86
2018-12-13T11:46:07.827Z,98949.87
2018-12-13T11:48:42.736Z,98955.20
2018-12-13T11:51:19.765Z,98953.61
2018-12-13T11:53:53.836Z,98958.42
2018-12-13T11:56:25.690Z,98957.66
2018-12-13T11:59:06.166Z,98959.08
2018-12-13T12:01:41.512Z,98954.16
2018-12-13T12:04:21.652Z,98959.02
2018-12-13T12:07:01.685Z,98950.58
2018-12-13T12:09:35.165Z,98956.66
2018-12-13T12:12:12.852Z,98951.61
2018-12-13T12:14:52.177Z,98958.59
2018-12-13T12:17:29.560Z,98956.20
2018-12-13T12:20:03.460Z,98949.70
2018-12-13T12:22:38.538Z,98947.58
2018-12-13T12:25:14.264Z,98956.97
2018-12-13T12:27:48.960Z,98953.33
2018-12-13T12:30:26.019Z,98951.41
2018-12-13T12:33:01.021Z,98952.25
2018-12-13T12:35:35.909Z,98952.22
2018-12-13T12:38:10.623Z,98954.06
2018-12-13T12:40:45.445Z,98951.47
2018-12-13T12:43:20.675Z,98946.56
2018-12-13T12:45:54.614Z,98948.83
2018-12-13T12:48:28.312Z,98940.63
2018-12-13T12:51:02.313Z,98935.00
2018-12-13T12:53:40.033Z,98937.48
2018-12-13T12:56:17.923Z,98929.05
2018-12-13T12:58:53.676Z,98931.34
2018-12-13T13:01:29.226Z,98927.06
2018-12-13T13:04:08.482Z,98925.32
2018-12-13T13:06:40.290Z,98928.20
2018-12-13T13:09:15.530Z,98924.27
2018-12-13T13:11:48.564Z,98925.86
2018-12-13T13:14:23.520Z,98918.25
2018-12-13T13:16:58.244Z,98906.02
2018-12-13T13:19:33.085Z,98908.54
2018-12-13T13:22:07.931Z,98903.44
2018-12-13T13:24:42.685Z,98906.56
2018-12-13T13:27:17.573Z,98904.82
2018-12-13T13:29:51.106Z,98907.02
2018-12-13T13:32:27.099Z,98912.51
2018-12-13T13:35:03.245Z,98912.33
2018-12-13T13:37:40.769Z,98914.16
2018-12-13T13:40:21.147Z,98917.05
2018-12-13T13:42:56.490Z,98910.07
2018-12-13T13:45:30.566Z,98909.65
2018-12-13T13:48:21.387Z,98905.64
2018-12-13T13:51:07.200Z,98909.42
2018-12-13T13:53:41.427Z,98904.30
2018-12-13T13:56:16.372Z,98914.62
2018-12-13T13:58:50.536Z,98917.95
2018-12-13T14:01:25.758Z,98921.83
2018-12-13T14:03:58.985Z,98915.38
2018-12-13T14:06:30.492Z,98916.82
2018-12-13T14:09:07.801Z,98915.73
2018-12-13T14:11:39.164Z,98903.39
2018-12-13T14:14:10.133Z,98905.10
2018-12-13T14:16:41.702Z,98898.77
2018-12-13T14:19:15.832Z,98894.00
2018-12-13T14:21:49.092Z,98895.13
2018-12-13T14:24:20.311Z,98891.67
2018-12-13T14:26:51.725Z,98885.53
2018-12-13T14:29:24.029Z,98895.91
2018-12-13T14:31:55.182Z,98899.26
2018-12-13T14:34:26.370Z,98894.87
2018-12-13T14:37:01.719Z,98899.83
2018-12-13T14:39:34.987Z,98900.50
2018-12-13T14:42:12.813Z,98901.69
2018-12-13T14:44:46.784Z,98900.23
2018-12-13T14:47:20.599Z,98903.86
2018-12-13T14:49:58.474Z,98907.21
2018-12-13T14:52:30.342Z,98904.28
2018-12-13T14:55:04.604Z,98906.97
2018-12-13T14:57:39.347Z,98903.23
2018-12-13T15:00:12.406Z,98906.23
2018-12-13T15:02:48.241Z,98901.06
2018-12-13T15:05:19.926Z,98900.52
2018-12-13T15:07:53.040Z,98898.25
2018-12-13T15:10:24.862Z,98904.42
2018-12-13T15:12:59.949Z,98898.28
2018-12-13T15:15:33.124Z,98900.75
2018-12-13T15:18:06.826Z,98897.57
2018-12-13T15:20:39.151Z,98897.02
2018-12-13T15:23:13.890Z,98900.61
2018-12-13T15:25:45.212Z,98904.37
2018-12-13T15:28:33.943Z,98913.29
2018-12-13T15:31:08.035Z,98918.91
2018-12-13T15:33:41.710Z,98912.98
2018-12-13T15:36:14.704Z,98913.51
2018-12-13T15:38:47.671Z,98906.05
2018-12-13T15:41:19.356Z,98917.66
2018-12-13T15:43:52.571Z,98915.41
2018-12-13T15:46:25.547Z,98904.95
2018-12-13T15:48:57.010Z,98907.91
2018-12-13T15:51:27.931Z,98904.69
2018-12-13T15:54:01.146Z,98907.65
2018-12-13T15:56:32.781Z,98907.09
2018-12-13T15:59:06.490Z,98909.77
2018-12-13T16:01:46.688Z,98900.64
2018-12-13T16:04:18.012Z,98903.97
2018-12-13T16:06:51.351Z,98914.97
2018-12-13T16:09:22.040Z,98915.31
2018-12-13T16:11:57.525Z,98912.16
2018-12-13T16:14:29.158Z,98916.41
2018-12-13T16:17:00.103Z,98912.09
2018-12-13T16:19:30.736Z,98919.82
2018-12-13T16:22:02.424Z,98920.54
2018-12-13T16:24:33.846Z,98911.52
2018-12-13T16:27:04.956Z,98912.92
2018-12-13T16:32:21.794Z,98909.31
2018-12-13T16:34:56.900Z,98905.63
2018-12-13T16:37:31.019Z,98904.89
2018-12-13T16:40:10.286Z,98906.52
2018-12-13T16:42:43.209Z,98899.84
2018-12-13T16:45:17.995Z,98907.58
2018-12-13T16:47:52.614Z,98900.38
2018-12-13T16:50:32.116Z,98902.20
2018-12-13T16:53:12.570Z,98909.44
2018-12-13T16:55:52.902Z,98903.87
2018-12-13T16:58:32.905Z,98911.18
2018-12-13T17:01:10.552Z,98904.66
2018-12-13T17:03:47.302Z,98904.13
2018-12-13T17:06:31.330Z,98906.99
2018-12-13T17:09:07.873Z,98904.63
2018-12-13T17:11:41.673Z,98908.70
2018-12-13T17:14:17.311Z,98900.48
2018-12-13T17:16:52.698Z,98902.27
2018-12-13T17:19:28.134Z,98896.70
2018-12-13T17:22:04.049Z,98902.06
2018-12-13T17:24:45.192Z,98897.74
2018-12-13T17:27:23.081Z,98894.75
2018-12-13T17:29:58.128Z,98906.34
2018-12-13T17:32:32.497Z,98913.31
2018-12-13T17:35:15.779Z,98916.18
2018-12-13T17:37:51.319Z,98917.55
2018-12-13T17:40:33.104Z,98914.61
2018-12-13T17:43:08.385Z,98909.20
2018-12-13T17:45:45.320Z,98914.17
2018-12-13T17:48:22.292Z,98915.20
2018-12-13T17:50:59.876Z,98907.64
2018-12-13T17:53:34.693Z,98900.73
2018-12-13T17:56:09.778Z,98908.80
2018-12-13T17:58:46.805Z,98908.64
2018-12-13T18:01:22.036Z,98907.47
2018-12-13T18:04:02.227Z,98909.67
2018-12-13T18:06:35.899Z,98910.97
2018-12-13T18:09:10.618Z,98907.09
2018-12-13T18:11:45.471Z,98906.31
2018-12-13T18:14:19.457Z,98911.99
2018-12-13T18:16:53.396Z,98912.69
2018-12-13T18:19:28.126Z,98914.92
2018-12-13T18:22:05.899Z,98920.08
2018-12-13T18:24:44.048Z,98917.70
2018-12-13T18:27:20.301Z,98921.27
2018-12-13T18:29:56.299Z,98922.97
2018-12-13T18:32:29.865Z,98920.47
2018-12-13T18:35:05.829Z,98916.59
2018-12-13T18:37:46.614Z,98911.52
2018-12-13T18:40:23.803Z,98914.55
2018-12-13T18:43:00.320Z,98917.63
2018-12-13T18:45:40.035Z,98917.21
2018-12-13T18:48:21.546Z,98921.61
2018-12-13T18:51:02.417Z,98920.73
2018-12-13T18:53:38.850Z,98921.61
2018-12-13T18:56:16.573Z,98923.20
2018-12-13T18:58:52.789Z,98924.88
2018-12-13T19:01:28.563Z,98927.45
2018-12-13T19:04:04.863Z,98932.15
2018-12-13T19:06:44.592Z,98930.41
2018-12-13T19:09:19.927Z,98930.25
2018-12-13T19:11:56.129Z,98934.99
2018-12-13T19:14:31.911Z,98934.91
2018-12-13T19:17:10.008Z,98935.38
2018-12-13T19:19:44.061Z,98932.41
2018-12-13T19:22:21.797Z,98937.23
2018-12-13T19:27:54.338Z,98934.27
2018-12-13T19:30:35.850Z,98936.93
2018-12-13T19:33:15.893Z,98949.83
2018-12-13T19:35:53.192Z,98943.84
2018-12-13T19:38:39.124Z,98945.12
2018-12-13T19:41:16.459Z,98951.58
2018-12-13T19:43:53.804Z,98952.45
2018-12-13T19:46:33.260Z,98955.09
2018-12-13T19:49:08.674Z,98951.58
2018-12-13T19:51:44.957Z,98955.09
2018-12-13T19:54:25.227Z,98949.22
2018-12-13T19:57:01.641Z,98948.92
2018-12-13T19:59:41.762Z,98953.70
2018-12-13T20:02:23.702Z,98958.02
2018-12-13T20:04:58.356Z,98955.37
2018-12-13T20:07:32.986Z,98953.89
2018-12-13T20:10:08.739Z,98959.39
2018-12-13T20:12:43.565Z,98958.59
2018-12-13T20:15:24.249Z,98964.09
2018-12-13T20:17:56.760Z,98953.89
2018-12-13T20:20:36.355Z,98963.83
2018-12-13T20:23:16.239Z,98954.88
2018-12-13T20:25:51.786Z,98957.87
2018-12-13T20:28:25.760Z,98961.29
2018-12-13T20:31:00.376Z,98955.71
2018-12-13T20:33:36.642Z,98956.92
2018-12-13T20:36:13.406Z,98964.33
2018-12-13T20:38:49.922Z,98961.25
2018-12-13T20:41:28.202Z,98957.00
2018-12-13T20:44:04.554Z,98957.30
2018-12-13T20:46:42.727Z,98958.94
2018-12-13T20:49:22.791Z,98957.11
2018-12-13T20:51:54.162Z,98960.79
2018-12-13T20:54:31.442Z,98959.13
2018-12-13T20:57:06.883Z,98958.59
2018-12-13T20:59:44.310Z,98958.39
2018-12-13T21:02:21.722Z,98948.12
2018-12-13T21:05:01.848Z,98957.52
2018-12-13T21:07:36.308Z,98954.79
2018-12-13T21:10:17.647Z,98958.31
2018-12-13T21:12:51.912Z,98958.95
2018-12-13T21:15:29.119Z,98954.52
2018-12-13T21:18:04.171Z,98953.97
2018-12-13T21:20:38.888Z,98954.69
2018-12-13T21:23:13.887Z,98950.28
2018-12-13T21:25:53.392Z,98957.10
2018-12-13T21:28:27.930Z,98953.95
2018-12-13T21:31:01.746Z,98960.77
2018-12-13T21:33:41.611Z,98951.28
2018-12-13T21:36:16.676Z,98951.75
2018-12-13T21:38:49.778Z,98952.58
2018-12-13T21:41:24.633Z,98952.12
2018-12-13T21:44:02.668Z,98947.30
2018-12-13T21:46:35.785Z,98948.05
2018-12-13T21:49:11.281Z,98944.56
2018-12-13T21:51:48.350Z,98952.29
2018-12-13T21:54:23.917Z,98950.17
2018-12-13T21:56:58.278Z,98949.71
2018-12-13T21:59:32.994Z,98949.63
2018-12-13T22:02:08.130Z,98943.11
2018-12-13T22:04:45.873Z,98952.54
2018-12-13T22:07:20.741Z,98948.30
2018-12-13T22:10:01.061Z,98947.47
2018-12-13T22:12:36.457Z,98946.23
2018-12-13T22:15:14.869Z,98954.13
2018-12-13T22:17:52.355Z,98953.25
2018-12-13T22:20:25.952Z,98954.53
2018-12-13T22:23:01.603Z,98946.30
2018-12-13T22:25:37.257Z,98952.38
2018-12-13T22:28:12.174Z,98954.03
2018-12-13T22:30:47.815Z,98956.53
2018-12-13T22:33:21.863Z,98950.05
2018-12-13T22:35:56.694Z,98952.62
2018-12-13T22:38:31.607Z,98959.60
2018-12-13T22:41:06.438Z,98958.24
2018-12-13T22:43:43.325Z,98962.10
2018-12-13T22:46:20.789Z,98958.24
2018-12-13T22:49:02.784Z,98959.07
2018-12-13T22:51:39.072Z,98959.53
2018-12-13T22:54:14.165Z,98959.53
2018-12-13T22:56:48.744Z,98954.33
2018-12-13T22:59:24.077Z,98956.08
2018-12-13T23:01:58.871Z,98953.62
2018-12-13T23:04:32.607Z,98962.31
2018-12-13T23:07:07.662Z,98958.07
2018-12-13T23:09:40.972Z,98955.98
2018-12-13T23:12:15.824Z,98953.86
2018-12-13T23:14:50.813Z,98947.77
2018-12-13T23:17:24.538Z,98952.83
2018-12-13T23:20:00.380Z,98953.09
2018-12-13T23:22:38.095Z,98947.34
2018-12-13T23:25:12.138Z,98947.76
2018-12-13T23:27:47.077Z,98949.76
2018-12-13T23:30:27.304Z,98955.70
2018-12-13T23:33:02.749Z,98951.00
2018-12-13T23:35:38.596Z,98954.00
2018-12-13T23:38:13.245Z,98947.55
2018-12-13T23:40:54.785Z,98943.69
2018-12-13T23:43:30.276Z,98954.91
2018-12-13T23:46:05.166Z,98945.06
2018-12-13T23:48:40.246Z,98948.17
2018-12-13T23:51:14.984Z,98946.10
2018-12-13T23:53:54.504Z,98945.73
2018-12-13T23:56:31.772Z,98947.52
2018-12-13T23:59:06.875Z,98944.94
